sensor_id;sensor_type;location;lat;lon;timestamp;P1;durP1;ratioP1;P2;durP2;ratioP2
55136;SDS011;41032;47.818;-3.732;2022-10-16T00:01:17;2.67;;;0.93;;
55136;SDS011;41032;47.818;-3.732;2022-10-16T00:03:47;3.47;;;1.15;;
55136;SDS011;41032;47.818;-3.732;2022-10-16T00:06:15;3.40;;;1.33;;
55136;SDS011;41032;47.818;-3.732;2022-10-16T00:08:45;1.50;;;0.60;;
55136;SDS011;41032;47.818;-3.732;2022-10-16T00:11:16;4.88;;;1.10;;
55136;SDS011;41032;47.818;-3.732;2022-10-16T00:13:44;2.22;;;0.85;;
55136;SDS011;41032;47.818;-3.732;2022-10-16T00:16:13;2.03;;;0.60;;
55136;SDS011;41032;47.818;-3.732;2022-10-16T00:18:42;6.05;;;1.25;;
55136;SDS011;41032;47.818;-3.732;2022-10-16T00:21:13;3.25;;;1.00;;
55136;SDS011;41032;47.818;-3.732;2022-10-16T00:23:42;2.25;;;0.73;;
55136;SDS011;41032;47.818;-3.732;2022-10-16T00:26:15;3.53;;;1.10;;
55136;SDS011;41032;47.818;-3.732;2022-10-16T00:28:45;1.50;;;0.70;;
55136;SDS011;41032;47.818;-3.732;2022-10-16T00:31:14;2.97;;;0.77;;
55136;SDS011;41032;47.818;-3.732;2022-10-16T00:33:44;4.50;;;0.93;;
55136;SDS011;41032;47.818;-3.732;2022-10-16T00:36:14;2.00;;;0.80;;
55136;SDS011;41032;47.818;-3.732;2022-10-16T00:38:44;1.92;;;0.63;;
55136;SDS011;41032;47.818;-3.732;2022-10-16T00:41:14;1.38;;;0.55;;
55136;SDS011;41032;47.818;-3.732;2022-10-16T00:46:20;1.50;;;0.73;;
55136;SDS011;41032;47.818;-3.732;2022-10-16T00:51:44;1.95;;;0.75;;
55136;SDS011;41032;47.818;-3.732;2022-10-16T00:54:15;2.25;;;0.60;;
55136;SDS011;41032;47.818;-3.732;2022-10-16T00:56:46;2.38;;;0.73;;
55136;SDS011;41032;47.818;-3.732;2022-10-16T00:59:16;3.30;;;0.82;;
55136;SDS011;41032;47.818;-3.732;2022-10-16T01:01:47;3.38;;;0.93;;
55136;SDS011;41032;47.818;-3.732;2022-10-16T01:04:15;2.42;;;0.57;;
55136;SDS011;41032;47.818;-3.732;2022-10-16T01:09:37;1.65;;;0.65;;
55136;SDS011;41032;47.818;-3.732;2022-10-16T01:12:10;2.17;;;0.65;;
55136;SDS011;41032;47.818;-3.732;2022-10-16T01:23:27;1.45;;;0.55;;
55136;SDS011;41032;47.818;-3.732;2022-10-16T01:28:41;1.67;;;0.60;;
55136;SDS011;41032;47.818;-3.732;2022-10-16T01:31:31;2.13;;;0.68;;
55136;SDS011;41032;47.818;-3.732;2022-10-16T01:34:03;1.17;;;0.40;;
55136;SDS011;41032;47.818;-3.732;2022-10-16T01:36:37;1.60;;;0.63;;
55136;SDS011;41032;47.818;-3.732;2022-10-16T01:39:08;3.08;;;0.60;;
55136;SDS011;41032;47.818;-3.732;2022-10-16T01:41:39;2.70;;;0.50;;
55136;SDS011;41032;47.818;-3.732;2022-10-16T01:44:10;2.78;;;0.93;;
55136;SDS011;41032;47.818;-3.732;2022-10-16T01:46:44;2.40;;;0.60;;
55136;SDS011;41032;47.818;-3.732;2022-10-16T01:49:14;1.02;;;0.47;;
55136;SDS011;41032;47.818;-3.732;2022-10-16T01:51:44;2.22;;;0.70;;
55136;SDS011;41032;47.818;-3.732;2022-10-16T01:54:13;2.63;;;0.80;;
55136;SDS011;41032;47.818;-3.732;2022-10-16T01:56:44;2.05;;;0.55;;
55136;SDS011;41032;47.818;-3.732;2022-10-16T01:59:13;1.50;;;0.60;;
55136;SDS011;41032;47.818;-3.732;2022-10-16T02:01:47;1.20;;;0.45;;
55136;SDS011;41032;47.818;-3.732;2022-10-16T02:04:29;1.27;;;0.45;;
55136;SDS011;41032;47.818;-3.732;2022-10-16T02:07:01;3.00;;;0.65;;
55136;SDS011;41032;47.818;-3.732;2022-10-16T02:09:29;2.60;;;0.77;;
55136;SDS011;41032;47.818;-3.732;2022-10-16T02:12:00;2.10;;;0.52;;
55136;SDS011;41032;47.818;-3.732;2022-10-16T02:14:31;1.23;;;0.57;;
55136;SDS011;41032;47.818;-3.732;2022-10-16T02:17:00;1.02;;;0.35;;
55136;SDS011;41032;47.818;-3.732;2022-10-16T02:19:29;1.65;;;0.60;;
55136;SDS011;41032;47.818;-3.732;2022-10-16T02:21:58;2.03;;;0.65;;
55136;SDS011;41032;47.818;-3.732;2022-10-16T02:27:50;3.88;;;0.75;;
55136;SDS011;41032;47.818;-3.732;2022-10-16T02:30:16;1.42;;;0.45;;
55136;SDS011;41032;47.818;-3.732;2022-10-16T02:33:07;1.25;;;0.50;;
55136;SDS011;41032;47.818;-3.732;2022-10-16T02:35:38;2.15;;;0.45;;
55136;SDS011;41032;47.818;-3.732;2022-10-16T02:38:08;0.65;;;0.30;;
55136;SDS011;41032;47.818;-3.732;2022-10-16T02:40:37;2.17;;;0.68;;
55136;SDS011;41032;47.818;-3.732;2022-10-16T02:43:06;3.70;;;0.57;;
55136;SDS011;41032;47.818;-3.732;2022-10-16T02:45:36;0.52;;;0.40;;
55136;SDS011;41032;47.818;-3.732;2022-10-16T02:48:04;1.95;;;0.47;;
55136;SDS011;41032;47.818;-3.732;2022-10-16T02:50:33;2.72;;;0.52;;
55136;SDS011;41032;47.818;-3.732;2022-10-16T02:53:01;1.55;;;0.50;;
55136;SDS011;41032;47.818;-3.732;2022-10-16T02:55:29;2.25;;;0.40;;
55136;SDS011;41032;47.818;-3.732;2022-10-16T02:57:59;1.42;;;0.50;;
55136;SDS011;41032;47.818;-3.732;2022-10-16T03:00:26;0.60;;;0.20;;
55136;SDS011;41032;47.818;-3.732;2022-10-16T03:02:56;0.95;;;0.40;;
55136;SDS011;41032;47.818;-3.732;2022-10-16T03:05:23;1.17;;;0.38;;
55136;SDS011;41032;47.818;-3.732;2022-10-16T03:07:52;2.45;;;0.50;;
55136;SDS011;41032;47.818;-3.732;2022-10-16T03:10:21;1.75;;;0.75;;
55136;SDS011;41032;47.818;-3.732;2022-10-16T03:12:49;3.60;;;0.75;;
55136;SDS011;41032;47.818;-3.732;2022-10-16T03:15:18;1.05;;;0.50;;
55136;SDS011;41032;47.818;-3.732;2022-10-16T03:17:46;1.38;;;0.40;;
55136;SDS011;41032;47.818;-3.732;2022-10-16T03:20:14;1.10;;;0.60;;
55136;SDS011;41032;47.818;-3.732;2022-10-16T03:22:44;0.85;;;0.35;;
55136;SDS011;41032;47.818;-3.732;2022-10-16T03:25:12;1.63;;;0.50;;
55136;SDS011;41032;47.818;-3.732;2022-10-16T03:27:40;0.80;;;0.30;;
55136;SDS011;41032;47.818;-3.732;2022-10-16T03:30:08;3.28;;;0.43;;
55136;SDS011;41032;47.818;-3.732;2022-10-16T03:32:38;0.90;;;0.30;;
55136;SDS011;41032;47.818;-3.732;2022-10-16T03:35:06;1.75;;;0.47;;
55136;SDS011;41032;47.818;-3.732;2022-10-16T03:37:34;0.93;;;0.30;;
55136;SDS011;41032;47.818;-3.732;2022-10-16T03:40:03;1.23;;;0.45;;
55136;SDS011;41032;47.818;-3.732;2022-10-16T03:42:32;1.00;;;0.38;;
55136;SDS011;41032;47.818;-3.732;2022-10-16T03:44:59;1.40;;;0.38;;
55136;SDS011;41032;47.818;-3.732;2022-10-16T03:47:29;1.52;;;0.50;;
55136;SDS011;41032;47.818;-3.732;2022-10-16T03:49:59;2.45;;;0.40;;
55136;SDS011;41032;47.818;-3.732;2022-10-16T03:52:27;1.48;;;0.35;;
55136;SDS011;41032;47.818;-3.732;2022-10-16T03:54:56;0.50;;;0.20;;
55136;SDS011;41032;47.818;-3.732;2022-10-16T03:57:24;1.55;;;0.30;;
55136;SDS011;41032;47.818;-3.732;2022-10-16T03:59:53;1.10;;;0.30;;
55136;SDS011;41032;47.818;-3.732;2022-10-16T04:02:22;0.93;;;0.40;;
55136;SDS011;41032;47.818;-3.732;2022-10-16T04:04:50;2.53;;;0.50;;
55136;SDS011;41032;47.818;-3.732;2022-10-16T04:07:19;2.20;;;0.35;;
55136;SDS011;41032;47.818;-3.732;2022-10-16T04:09:48;0.82;;;0.38;;
55136;SDS011;41032;47.818;-3.732;2022-10-16T04:12:17;0.82;;;0.40;;
55136;SDS011;41032;47.818;-3.732;2022-10-16T04:14:47;4.82;;;0.73;;
55136;SDS011;41032;47.818;-3.732;2022-10-16T04:17:14;0.57;;;0.20;;
55136;SDS011;41032;47.818;-3.732;2022-10-16T04:19:41;0.63;;;0.40;;
55136;SDS011;41032;47.818;-3.732;2022-10-16T04:22:11;0.85;;;0.30;;
55136;SDS011;41032;47.818;-3.732;2022-10-16T04:24:39;1.58;;;0.38;;
55136;SDS011;41032;47.818;-3.732;2022-10-16T04:27:08;1.45;;;0.32;;
55136;SDS011;41032;47.818;-3.732;2022-10-16T04:29:36;1.10;;;0.20;;
55136;SDS011;41032;47.818;-3.732;2022-10-16T04:32:05;2.72;;;0.20;;
55136;SDS011;41032;47.818;-3.732;2022-10-16T04:34:34;0.73;;;0.30;;
55136;SDS011;41032;47.818;-3.732;2022-10-16T04:37:05;1.17;;;0.45;;
55136;SDS011;41032;47.818;-3.732;2022-10-16T04:39:33;1.13;;;0.40;;
55136;SDS011;41032;47.818;-3.732;2022-10-16T04:42:03;1.45;;;0.35;;
55136;SDS011;41032;47.818;-3.732;2022-10-16T04:44:31;3.75;;;0.30;;
55136;SDS011;41032;47.818;-3.732;2022-10-16T04:47:00;1.38;;;0.40;;
55136;SDS011;41032;47.818;-3.732;2022-10-16T04:49:28;2.95;;;0.73;;
55136;SDS011;41032;47.818;-3.732;2022-10-16T04:51:58;1.65;;;0.38;;
55136;SDS011;41032;47.818;-3.732;2022-10-16T04:54:25;0.40;;;0.10;;
55136;SDS011;41032;47.818;-3.732;2022-10-16T04:56:55;3.15;;;0.40;;
55136;SDS011;41032;47.818;-3.732;2022-10-16T04:59:22;0.55;;;0.30;;
55136;SDS011;41032;47.818;-3.732;2022-10-16T05:01:54;0.55;;;0.30;;
55136;SDS011;41032;47.818;-3.732;2022-10-16T05:04:22;0.85;;;0.40;;
55136;SDS011;41032;47.818;-3.732;2022-10-16T05:06:50;0.77;;;0.40;;
55136;SDS011;41032;47.818;-3.732;2022-10-16T05:09:19;0.95;;;0.30;;
55136;SDS011;41032;47.818;-3.732;2022-10-16T05:11:49;1.20;;;0.28;;
55136;SDS011;41032;47.818;-3.732;2022-10-16T05:14:16;2.10;;;0.63;;
55136;SDS011;41032;47.818;-3.732;2022-10-16T05:16:46;0.75;;;0.40;;
55136;SDS011;41032;47.818;-3.732;2022-10-16T05:19:14;1.13;;;0.52;;
55136;SDS011;41032;47.818;-3.732;2022-10-16T05:21:44;0.70;;;0.20;;
55136;SDS011;41032;47.818;-3.732;2022-10-16T05:24:12;0.90;;;0.40;;
55136;SDS011;41032;47.818;-3.732;2022-10-16T05:26:40;1.05;;;0.50;;
55136;SDS011;41032;47.818;-3.732;2022-10-16T05:29:09;1.98;;;0.52;;
55136;SDS011;41032;47.818;-3.732;2022-10-16T05:31:37;0.60;;;0.30;;
55136;SDS011;41032;47.818;-3.732;2022-10-16T05:34:06;0.70;;;0.30;;
55136;SDS011;41032;47.818;-3.732;2022-10-16T05:36:35;4.95;;;0.50;;
55136;SDS011;41032;47.818;-3.732;2022-10-16T05:39:03;1.77;;;0.40;;
55136;SDS011;41032;47.818;-3.732;2022-10-16T05:41:33;2.05;;;0.50;;
55136;SDS011;41032;47.818;-3.732;2022-10-16T05:44:03;1.55;;;0.60;;
55136;SDS011;41032;47.818;-3.732;2022-10-16T05:46:32;1.80;;;0.50;;
55136;SDS011;41032;47.818;-3.732;2022-10-16T05:49:00;1.65;;;0.68;;
55136;SDS011;41032;47.818;-3.732;2022-10-16T05:51:30;2.58;;;0.52;;
55136;SDS011;41032;47.818;-3.732;2022-10-16T05:53:58;0.98;;;0.47;;
55136;SDS011;41032;47.818;-3.732;2022-10-16T05:56:26;4.55;;;1.08;;
55136;SDS011;41032;47.818;-3.732;2022-10-16T05:58:54;1.95;;;0.63;;
55136;SDS011;41032;47.818;-3.732;2022-10-16T06:01:22;2.03;;;0.52;;
55136;SDS011;41032;47.818;-3.732;2022-10-16T06:03:51;1.67;;;0.60;;
55136;SDS011;41032;47.818;-3.732;2022-10-16T06:06:19;1.23;;;0.60;;
55136;SDS011;41032;47.818;-3.732;2022-10-16T06:08:49;1.75;;;0.50;;
55136;SDS011;41032;47.818;-3.732;2022-10-16T06:11:19;1.00;;;0.55;;
55136;SDS011;41032;47.818;-3.732;2022-10-16T06:13:49;1.92;;;0.68;;
55136;SDS011;41032;47.818;-3.732;2022-10-16T06:16:18;0.88;;;0.43;;
55136;SDS011;41032;47.818;-3.732;2022-10-16T06:18:47;0.88;;;0.50;;
55136;SDS011;41032;47.818;-3.732;2022-10-16T06:21:16;1.92;;;0.70;;
55136;SDS011;41032;47.818;-3.732;2022-10-16T06:23:46;1.60;;;0.80;;
55136;SDS011;41032;47.818;-3.732;2022-10-16T06:26:16;1.23;;;0.60;;
55136;SDS011;41032;47.818;-3.732;2022-10-16T06:28:45;1.33;;;0.70;;
55136;SDS011;41032;47.818;-3.732;2022-10-16T06:31:14;1.80;;;0.70;;
55136;SDS011;41032;47.818;-3.732;2022-10-16T06:33:43;1.50;;;0.70;;
55136;SDS011;41032;47.818;-3.732;2022-10-16T06:36:13;3.30;;;0.82;;
55136;SDS011;41032;47.818;-3.732;2022-10-16T06:38:43;7.72;;;1.02;;
55136;SDS011;41032;47.818;-3.732;2022-10-16T06:41:14;7.18;;;1.33;;
55136;SDS011;41032;47.818;-3.732;2022-10-16T06:43:43;1.80;;;0.88;;
55136;SDS011;41032;47.818;-3.732;2022-10-16T06:46:11;2.55;;;0.90;;
55136;SDS011;41032;47.818;-3.732;2022-10-16T06:48:40;4.53;;;1.10;;
55136;SDS011;41032;47.818;-3.732;2022-10-16T06:51:10;3.03;;;1.20;;
55136;SDS011;41032;47.818;-3.732;2022-10-16T06:53:40;4.55;;;1.30;;
55136;SDS011;41032;47.818;-3.732;2022-10-16T06:56:10;1.75;;;0.90;;
55136;SDS011;41032;47.818;-3.732;2022-10-16T06:58:41;2.65;;;0.95;;
55136;SDS011;41032;47.818;-3.732;2022-10-16T07:01:09;1.52;;;0.80;;
55136;SDS011;41032;47.818;-3.732;2022-10-16T07:03:40;2.88;;;1.15;;
55136;SDS011;41032;47.818;-3.732;2022-10-16T07:06:09;2.20;;;0.85;;
55136;SDS011;41032;47.818;-3.732;2022-10-16T07:08:39;2.53;;;0.90;;
55136;SDS011;41032;47.818;-3.732;2022-10-16T07:11:11;4.53;;;1.10;;
55136;SDS011;41032;47.818;-3.732;2022-10-16T07:13:40;2.78;;;0.90;;
55136;SDS011;41032;47.818;-3.732;2022-10-16T07:16:13;2.45;;;0.90;;
55136;SDS011;41032;47.818;-3.732;2022-10-16T07:18:43;1.98;;;0.80;;
55136;SDS011;41032;47.818;-3.732;2022-10-16T07:21:13;1.67;;;0.95;;
55136;SDS011;41032;47.818;-3.732;2022-10-16T07:23:42;1.63;;;0.65;;
55136;SDS011;41032;47.818;-3.732;2022-10-16T07:26:09;3.50;;;1.00;;
55136;SDS011;41032;47.818;-3.732;2022-10-16T07:28:37;2.10;;;0.98;;
55136;SDS011;41032;47.818;-3.732;2022-10-16T07:31:07;1.20;;;0.63;;
55136;SDS011;41032;47.818;-3.732;2022-10-16T07:33:37;3.10;;;0.90;;
55136;SDS011;41032;47.818;-3.732;2022-10-16T07:36:05;3.03;;;1.00;;
55136;SDS011;41032;47.818;-3.732;2022-10-16T07:38:33;3.35;;;1.00;;
55136;SDS011;41032;47.818;-3.732;2022-10-16T07:41:01;1.10;;;0.57;;
55136;SDS011;41032;47.818;-3.732;2022-10-16T07:43:31;2.55;;;1.00;;
55136;SDS011;41032;47.818;-3.732;2022-10-16T07:46:00;1.95;;;0.80;;
55136;SDS011;41032;47.818;-3.732;2022-10-16T07:48:29;1.83;;;0.68;;
55136;SDS011;41032;47.818;-3.732;2022-10-16T07:50:59;1.00;;;0.60;;
55136;SDS011;41032;47.818;-3.732;2022-10-16T07:53:29;3.58;;;1.10;;
55136;SDS011;41032;47.818;-3.732;2022-10-16T07:55:58;4.82;;;0.85;;
55136;SDS011;41032;47.818;-3.732;2022-10-16T07:58:27;2.63;;;0.98;;
55136;SDS011;41032;47.818;-3.732;2022-10-16T08:00:55;3.00;;;0.88;;
55136;SDS011;41032;47.818;-3.732;2022-10-16T08:03:24;2.22;;;0.63;;
55136;SDS011;41032;47.818;-3.732;2022-10-16T08:05:53;1.80;;;0.63;;
55136;SDS011;41032;47.818;-3.732;2022-10-16T08:08:21;2.10;;;1.00;;
55136;SDS011;41032;47.818;-3.732;2022-10-16T08:10:49;2.53;;;0.90;;
55136;SDS011;41032;47.818;-3.732;2022-10-16T08:13:17;5.30;;;0.90;;
55136;SDS011;41032;47.818;-3.732;2022-10-16T08:15:47;4.15;;;1.10;;
55136;SDS011;41032;47.818;-3.732;2022-10-16T08:18:15;3.13;;;1.00;;
55136;SDS011;41032;47.818;-3.732;2022-10-16T08:20:44;4.30;;;1.33;;
55136;SDS011;41032;47.818;-3.732;2022-10-16T08:23:11;2.67;;;1.05;;
55136;SDS011;41032;47.818;-3.732;2022-10-16T08:25:40;2.70;;;0.85;;
55136;SDS011;41032;47.818;-3.732;2022-10-16T08:28:09;2.67;;;1.00;;
55136;SDS011;41032;47.818;-3.732;2022-10-16T08:30:38;2.80;;;0.98;;
55136;SDS011;41032;47.818;-3.732;2022-10-16T08:33:07;1.67;;;0.60;;
55136;SDS011;41032;47.818;-3.732;2022-10-16T08:35:35;1.65;;;0.70;;
55136;SDS011;41032;47.818;-3.732;2022-10-16T08:38:04;1.80;;;0.85;;
55136;SDS011;41032;47.818;-3.732;2022-10-16T08:40:35;3.05;;;0.90;;
55136;SDS011;41032;47.818;-3.732;2022-10-16T08:43:09;3.45;;;0.82;;
55136;SDS011;41032;47.818;-3.732;2022-10-16T08:46:04;2.50;;;0.63;;
55136;SDS011;41032;47.818;-3.732;2022-10-16T08:48:54;3.63;;;1.10;;
55136;SDS011;41032;47.818;-3.732;2022-10-16T08:51:25;2.63;;;0.90;;
55136;SDS011;41032;47.818;-3.732;2022-10-16T08:53:56;2.35;;;0.80;;
55136;SDS011;41032;47.818;-3.732;2022-10-16T08:56:25;5.47;;;0.93;;
55136;SDS011;41032;47.818;-3.732;2022-10-16T08:58:54;2.35;;;0.90;;
55136;SDS011;41032;47.818;-3.732;2022-10-16T09:01:24;4.60;;;1.02;;
55136;SDS011;41032;47.818;-3.732;2022-10-16T09:14:40;5.50;;;0.80;;
55136;SDS011;41032;47.818;-3.732;2022-10-16T09:17:19;2.95;;;0.85;;
55136;SDS011;41032;47.818;-3.732;2022-10-16T09:23:08;2.42;;;0.80;;
55136;SDS011;41032;47.818;-3.732;2022-10-16T09:25:57;6.07;;;0.85;;
55136;SDS011;41032;47.818;-3.732;2022-10-16T09:28:26;1.08;;;0.60;;
55136;SDS011;41032;47.818;-3.732;2022-10-16T09:30:54;4.07;;;0.60;;
55136;SDS011;41032;47.818;-3.732;2022-10-16T09:33:25;3.08;;;1.00;;
55136;SDS011;41032;47.818;-3.732;2022-10-16T09:35:56;1.35;;;0.57;;
55136;SDS011;41032;47.818;-3.732;2022-10-16T09:38:34;2.78;;;0.90;;
55136;SDS011;41032;47.818;-3.732;2022-10-16T09:41:12;1.70;;;0.82;;
55136;SDS011;41032;47.818;-3.732;2022-10-16T09:43:46;2.05;;;0.88;;
55136;SDS011;41032;47.818;-3.732;2022-10-16T09:46:37;2.47;;;0.67;;
55136;SDS011;41032;47.818;-3.732;2022-10-16T09:49:20;4.72;;;1.02;;
55136;SDS011;41032;47.818;-3.732;2022-10-16T09:51:50;2.97;;;0.75;;
55136;SDS011;41032;47.818;-3.732;2022-10-16T09:54:29;3.55;;;0.80;;
55136;SDS011;41032;47.818;-3.732;2022-10-16T09:57:06;0.75;;;0.50;;
55136;SDS011;41032;47.818;-3.732;2022-10-16T09:59:45;2.72;;;0.60;;
55136;SDS011;41032;47.818;-3.732;2022-10-16T10:02:13;1.83;;;0.52;;
55136;SDS011;41032;47.818;-3.732;2022-10-16T10:04:47;2.15;;;0.82;;
55136;SDS011;41032;47.818;-3.732;2022-10-16T10:07:23;2.95;;;0.85;;
55136;SDS011;41032;47.818;-3.732;2022-10-16T10:09:53;2.50;;;0.70;;
55136;SDS011;41032;47.818;-3.732;2022-10-16T10:12:23;2.08;;;1.05;;
55136;SDS011;41032;47.818;-3.732;2022-10-16T10:14:53;2.72;;;0.70;;
55136;SDS011;41032;47.818;-3.732;2022-10-16T10:17:24;3.95;;;0.60;;
55136;SDS011;41032;47.818;-3.732;2022-10-16T10:19:54;2.90;;;0.82;;
55136;SDS011;41032;47.818;-3.732;2022-10-16T10:22:45;4.47;;;1.25;;
55136;SDS011;41032;47.818;-3.732;2022-10-16T10:25:16;1.75;;;0.60;;
55136;SDS011;41032;47.818;-3.732;2022-10-16T10:27:56;3.03;;;1.10;;
55136;SDS011;41032;47.818;-3.732;2022-10-16T10:34:11;3.30;;;0.90;;
55136;SDS011;41032;47.818;-3.732;2022-10-16T10:36:30;1.90;;;0.60;;
55136;SDS011;41032;47.818;-3.732;2022-10-16T10:55:15;3.72;;;0.73;;
55136;SDS011;41032;47.818;-3.732;2022-10-16T11:01:16;3.95;;;0.70;;
55136;SDS011;41032;47.818;-3.732;2022-10-16T11:06:30;2.60;;;0.77;;
55136;SDS011;41032;47.818;-3.732;2022-10-16T11:09:09;7.60;;;1.10;;
55136;SDS011;41032;47.818;-3.732;2022-10-16T11:11:43;2.97;;;1.02;;
55136;SDS011;41032;47.818;-3.732;2022-10-16T11:14:19;3.90;;;1.20;;
55136;SDS011;41032;47.818;-3.732;2022-10-16T11:17:31;5.75;;;0.88;;
55136;SDS011;41032;47.818;-3.732;2022-10-16T11:19:47;4.00;;;0.73;;
55136;SDS011;41032;47.818;-3.732;2022-10-16T11:22:22;5.88;;;1.08;;
55136;SDS011;41032;47.818;-3.732;2022-10-16T11:27:30;2.47;;;0.77;;
55136;SDS011;41032;47.818;-3.732;2022-10-16T11:30:05;2.22;;;0.90;;
55136;SDS011;41032;47.818;-3.732;2022-10-16T11:35:31;2.40;;;0.60;;
55136;SDS011;41032;47.818;-3.732;2022-10-16T11:44:14;4.63;;;0.88;;
55136;SDS011;41032;47.818;-3.732;2022-10-16T11:49:53;4.90;;;1.30;;
55136;SDS011;41032;47.818;-3.732;2022-10-16T11:54:56;5.00;;;0.80;;
55136;SDS011;41032;47.818;-3.732;2022-10-16T12:00:34;3.42;;;0.90;;
55136;SDS011;41032;47.818;-3.732;2022-10-16T12:03:01;4.93;;;1.00;;
55136;SDS011;41032;47.818;-3.732;2022-10-16T12:06:02;5.72;;;1.20;;
55136;SDS011;41032;47.818;-3.732;2022-10-16T12:08:51;3.60;;;0.85;;
55136;SDS011;41032;47.818;-3.732;2022-10-16T12:11:30;5.18;;;0.98;;
55136;SDS011;41032;47.818;-3.732;2022-10-16T12:14:04;3.22;;;1.08;;
55136;SDS011;41032;47.818;-3.732;2022-10-16T12:17:34;6.17;;;1.20;;
55136;SDS011;41032;47.818;-3.732;2022-10-16T12:20:00;5.70;;;1.38;;
55136;SDS011;41032;47.818;-3.732;2022-10-16T12:25:29;4.32;;;1.38;;
55136;SDS011;41032;47.818;-3.732;2022-10-16T12:27:59;3.20;;;1.20;;
55136;SDS011;41032;47.818;-3.732;2022-10-16T12:30:27;5.03;;;1.23;;
55136;SDS011;41032;47.818;-3.732;2022-10-16T12:32:58;5.45;;;1.17;;
55136;SDS011;41032;47.818;-3.732;2022-10-16T12:35:29;5.43;;;1.33;;
55136;SDS011;41032;47.818;-3.732;2022-10-16T12:41:06;3.05;;;1.10;;
55136;SDS011;41032;47.818;-3.732;2022-10-16T12:43:36;4.30;;;1.17;;
55136;SDS011;41032;47.818;-3.732;2022-10-16T12:49:04;4.13;;;1.10;;
55136;SDS011;41032;47.818;-3.732;2022-10-16T12:51:53;3.70;;;1.10;;
55136;SDS011;41032;47.818;-3.732;2022-10-16T12:54:25;3.95;;;1.00;;
55136;SDS011;41032;47.818;-3.732;2022-10-16T13:02:14;4.53;;;1.25;;
55136;SDS011;41032;47.818;-3.732;2022-10-16T13:08:24;5.28;;;0.95;;
55136;SDS011;41032;47.818;-3.732;2022-10-16T13:19:18;3.40;;;1.13;;
55136;SDS011;41032;47.818;-3.732;2022-10-16T13:30:02;4.75;;;1.10;;
55136;SDS011;41032;47.818;-3.732;2022-10-16T13:32:44;3.70;;;0.98;;
55136;SDS011;41032;47.818;-3.732;2022-10-16T13:35:24;4.40;;;1.23;;
55136;SDS011;41032;47.818;-3.732;2022-10-16T13:38:05;4.80;;;1.10;;
55136;SDS011;41032;47.818;-3.732;2022-10-16T13:40:33;4.20;;;1.27;;
55136;SDS011;41032;47.818;-3.732;2022-10-16T13:43:22;7.15;;;1.40;;
55136;SDS011;41032;47.818;-3.732;2022-10-16T13:45:54;6.43;;;1.35;;
55136;SDS011;41032;47.818;-3.732;2022-10-16T13:48:23;7.53;;;1.33;;
55136;SDS011;41032;47.818;-3.732;2022-10-16T13:51:01;5.35;;;1.30;;
55136;SDS011;41032;47.818;-3.732;2022-10-16T13:53:38;4.05;;;0.90;;
55136;SDS011;41032;47.818;-3.732;2022-10-16T13:56:09;7.45;;;2.03;;
55136;SDS011;41032;47.818;-3.732;2022-10-16T13:58:39;5.38;;;1.73;;
55136;SDS011;41032;47.818;-3.732;2022-10-16T14:01:52;4.13;;;1.35;;
55136;SDS011;41032;47.818;-3.732;2022-10-16T14:04:16;5.03;;;1.73;;
55136;SDS011;41032;47.818;-3.732;2022-10-16T14:06:45;8.15;;;2.35;;
55136;SDS011;41032;47.818;-3.732;2022-10-16T14:09:21;4.15;;;1.58;;
55136;SDS011;41032;47.818;-3.732;2022-10-16T14:11:55;5.78;;;2.33;;
55136;SDS011;41032;47.818;-3.732;2022-10-16T14:14:26;8.30;;;2.35;;
55136;SDS011;41032;47.818;-3.732;2022-10-16T14:16:59;5.80;;;2.00;;
55136;SDS011;41032;47.818;-3.732;2022-10-16T14:19:29;5.95;;;1.52;;
55136;SDS011;41032;47.818;-3.732;2022-10-16T14:21:58;6.07;;;2.50;;
55136;SDS011;41032;47.818;-3.732;2022-10-16T14:24:32;7.43;;;2.40;;
55136;SDS011;41032;47.818;-3.732;2022-10-16T14:27:01;5.63;;;1.90;;
55136;SDS011;41032;47.818;-3.732;2022-10-16T14:29:47;11.52;;;3.08;;
55136;SDS011;41032;47.818;-3.732;2022-10-16T14:32:22;4.88;;;1.90;;
55136;SDS011;41032;47.818;-3.732;2022-10-16T14:34:54;8.27;;;2.28;;
55136;SDS011;41032;47.818;-3.732;2022-10-16T14:37:26;9.85;;;3.25;;
55136;SDS011;41032;47.818;-3.732;2022-10-16T14:39:55;14.30;;;3.05;;
55136;SDS011;41032;47.818;-3.732;2022-10-16T14:42:24;15.27;;;2.50;;
55136;SDS011;41032;47.818;-3.732;2022-10-16T14:44:52;6.40;;;2.03;;
55136;SDS011;41032;47.818;-3.732;2022-10-16T14:47:21;8.38;;;2.03;;
55136;SDS011;41032;47.818;-3.732;2022-10-16T14:49:52;7.47;;;2.20;;
55136;SDS011;41032;47.818;-3.732;2022-10-16T14:52:23;10.48;;;2.47;;
55136;SDS011;41032;47.818;-3.732;2022-10-16T14:54:51;7.13;;;2.25;;
55136;SDS011;41032;47.818;-3.732;2022-10-16T14:57:22;3.25;;;1.50;;
55136;SDS011;41032;47.818;-3.732;2022-10-16T14:59:51;7.47;;;1.85;;
55136;SDS011;41032;47.818;-3.732;2022-10-16T15:04:52;6.63;;;2.17;;
55136;SDS011;41032;47.818;-3.732;2022-10-16T15:07:20;7.95;;;1.73;;
55136;SDS011;41032;47.818;-3.732;2022-10-16T15:09:51;7.07;;;1.80;;
55136;SDS011;41032;47.818;-3.732;2022-10-16T15:12:19;9.65;;;1.85;;
55136;SDS011;41032;47.818;-3.732;2022-10-16T15:14:49;6.68;;;2.03;;
55136;SDS011;41032;47.818;-3.732;2022-10-16T15:17:16;7.43;;;2.17;;
55136;SDS011;41032;47.818;-3.732;2022-10-16T15:19:43;4.75;;;1.70;;
55136;SDS011;41032;47.818;-3.732;2022-10-16T15:22:12;5.22;;;1.80;;
55136;SDS011;41032;47.818;-3.732;2022-10-16T15:24:40;6.32;;;1.90;;
55136;SDS011;41032;47.818;-3.732;2022-10-16T15:27:08;8.18;;;1.95;;
55136;SDS011;41032;47.818;-3.732;2022-10-16T15:29:37;5.53;;;1.80;;
55136;SDS011;41032;47.818;-3.732;2022-10-16T15:32:05;6.70;;;1.58;;
55136;SDS011;41032;47.818;-3.732;2022-10-16T15:34:35;5.80;;;1.40;;
55136;SDS011;41032;47.818;-3.732;2022-10-16T15:37:03;6.20;;;1.67;;
55136;SDS011;41032;47.818;-3.732;2022-10-16T15:39:31;4.22;;;1.35;;
55136;SDS011;41032;47.818;-3.732;2022-10-16T15:42:00;4.30;;;1.95;;
55136;SDS011;41032;47.818;-3.732;2022-10-16T15:44:29;11.30;;;2.38;;
55136;SDS011;41032;47.818;-3.732;2022-10-16T15:46:57;5.25;;;1.42;;
55136;SDS011;41032;47.818;-3.732;2022-10-16T15:49:24;5.70;;;1.55;;
55136;SDS011;41032;47.818;-3.732;2022-10-16T15:51:52;7.22;;;1.73;;
55136;SDS011;41032;47.818;-3.732;2022-10-16T15:54:20;7.00;;;1.92;;
55136;SDS011;41032;47.818;-3.732;2022-10-16T15:56:49;6.55;;;1.25;;
55136;SDS011;41032;47.818;-3.732;2022-10-16T15:59:18;8.57;;;1.98;;
55136;SDS011;41032;47.818;-3.732;2022-10-16T16:01:46;5.63;;;1.50;;
55136;SDS011;41032;47.818;-3.732;2022-10-16T16:04:14;2.88;;;1.33;;
55136;SDS011;41032;47.818;-3.732;2022-10-16T16:06:44;4.47;;;1.52;;
55136;SDS011;41032;47.818;-3.732;2022-10-16T16:09:12;3.80;;;1.20;;
55136;SDS011;41032;47.818;-3.732;2022-10-16T16:14:58;5.03;;;1.27;;
55136;SDS011;41032;47.818;-3.732;2022-10-16T16:17:27;4.28;;;1.33;;
55136;SDS011;41032;47.818;-3.732;2022-10-16T16:19:56;3.60;;;1.50;;
55136;SDS011;41032;47.818;-3.732;2022-10-16T16:22:25;5.15;;;1.35;;
55136;SDS011;41032;47.818;-3.732;2022-10-16T16:24:53;11.00;;;2.88;;
55136;SDS011;41032;47.818;-3.732;2022-10-16T16:27:22;8.13;;;1.40;;
55136;SDS011;41032;47.818;-3.732;2022-10-16T16:29:50;5.47;;;1.70;;
55136;SDS011;41032;47.818;-3.732;2022-10-16T16:32:21;4.88;;;1.58;;
55136;SDS011;41032;47.818;-3.732;2022-10-16T16:34:49;3.83;;;1.38;;
55136;SDS011;41032;47.818;-3.732;2022-10-16T16:37:18;5.13;;;1.60;;
55136;SDS011;41032;47.818;-3.732;2022-10-16T16:39:46;3.85;;;1.30;;
55136;SDS011;41032;47.818;-3.732;2022-10-16T16:42:14;10.00;;;1.92;;
55136;SDS011;41032;47.818;-3.732;2022-10-16T16:44:42;4.88;;;1.30;;
55136;SDS011;41032;47.818;-3.732;2022-10-16T16:47:11;5.47;;;1.48;;
55136;SDS011;41032;47.818;-3.732;2022-10-16T16:49:39;7.05;;;1.10;;
55136;SDS011;41032;47.818;-3.732;2022-10-16T16:52:07;5.25;;;1.40;;
55136;SDS011;41032;47.818;-3.732;2022-10-16T16:54:34;5.05;;;1.10;;
55136;SDS011;41032;47.818;-3.732;2022-10-16T16:57:02;3.08;;;1.23;;
55136;SDS011;41032;47.818;-3.732;2022-10-16T16:59:31;4.75;;;1.42;;